Hlavní strana
METAR-TAF:

METAR-TAF

Letiště :

West Memphis, Arkansas, Spojené státy americké

zeměpisná šířka: 35-08N, zeměpisná délka: 090-14W, výška: 65 m

Aktuální stav počasí

Zpráva byla vytvořena před 14 minutami, v 08:53 UTC
Severoseverovýchodní vítr 5 kt
Teplota 18°C
Vlhkost vzduchu 83%
Tlak 1020 hPa
Viditelnost: 16.1 km
Oblačno až skoro zataženo ve výšce 7000 ft

METAR: KAWM 300853Z AUTO 03005KT 10SM BKN070 18/15 A3011 RMK AO2 SLP191 T01830150 53010

Čas: 04:07 (09:07 UTC)


TAF: chybějící

Stav a předpovědi počasí z více než 4 000 letišť (zprávy METAR a TAF).

Červené a žluté tečky na mapě představují dostupné meteorologické stanice.

Když kurzor umístíte na tečku, zobrazí se název stanice.

Pak kliknutím zobrazíte stav a předpověď počasí.

Chcete-li změnit mapu, kliknutím na zelené tlačítko se znaménkem +mapu přiblížíte, kliknutím na zelené tlačítko se znaménkem – mapu oddálíte a kliknutím na zelené šipky přejdete na sousední mapy.


METAR-TAF: